createdAt,value
2018-12-29T00:00:19.181Z,80.00
2018-12-29T00:01:19.164Z,78.50
2018-12-29T00:02:19.109Z,83.60
2018-12-29T00:03:19.069Z,74.70
2018-12-29T00:04:19.032Z,81.40
2018-12-29T00:05:18.994Z,74.60
2018-12-29T00:06:18.953Z,80.00
2018-12-29T00:07:18.917Z,77.70
2018-12-29T00:08:18.904Z,74.30
2018-12-29T00:09:18.842Z,78.70
2018-12-29T00:10:18.804Z,82.30
2018-12-29T00:11:18.764Z,80.70
2018-12-29T00:12:18.722Z,76.70
2018-12-29T00:13:18.714Z,77.20
2018-12-29T00:14:18.652Z,72.90
2018-12-29T00:15:18.622Z,79.20
2018-12-29T00:16:18.579Z,77.30
2018-12-29T00:17:18.549Z,70.90
2018-12-29T00:18:18.510Z,79.00
2018-12-29T00:19:18.453Z,74.70
2018-12-29T00:20:18.463Z,68.90
2018-12-29T00:21:18.379Z,77.40
2018-12-29T00:22:18.351Z,75.80
2018-12-29T00:23:18.307Z,74.00
2018-12-29T00:24:18.271Z,75.10
2018-12-29T00:25:18.231Z,79.00
2018-12-29T00:26:18.201Z,68.50
2018-12-29T00:27:18.155Z,75.70
2018-12-29T00:28:18.145Z,74.90
2018-12-29T00:29:18.114Z,71.80
2018-12-29T00:30:18.082Z,77.90
2018-12-29T00:31:18.006Z,75.50
2018-12-29T00:32:17.969Z,78.10
2018-12-29T00:33:17.934Z,75.20
2018-12-29T00:34:17.910Z,67.40
2018-12-29T00:35:17.850Z,76.10
2018-12-29T00:36:17.812Z,78.00
2018-12-29T00:37:17.775Z,75.40
2018-12-29T00:38:17.735Z,80.60
2018-12-29T00:39:17.723Z,74.70
2018-12-29T00:40:17.666Z,72.70
2018-12-29T00:41:17.630Z,75.40
2018-12-29T00:42:17.592Z,77.40
2018-12-29T00:43:17.550Z,78.80
2018-12-29T00:44:17.515Z,82.40
2018-12-29T00:45:17.478Z,80.10
2018-12-29T00:46:17.460Z,76.40
2018-12-29T00:47:17.406Z,74.40
2018-12-29T00:48:17.364Z,75.10
2018-12-29T00:49:17.328Z,77.50
2018-12-29T00:50:17.290Z,74.20
2018-12-29T00:51:17.247Z,74.70
2018-12-29T00:52:17.234Z,75.60
2018-12-29T00:53:17.182Z,69.80
2018-12-29T00:54:17.133Z,71.20
2018-12-29T00:55:17.097Z,70.20
2018-12-29T00:56:17.062Z,71.90
2018-12-29T00:57:17.022Z,66.60
2018-12-29T00:58:16.987Z,70.60
2018-12-29T00:59:17.032Z,65.90
2018-12-29T01:00:16.927Z,67.00
2018-12-29T01:01:16.878Z,74.40
2018-12-29T01:02:16.856Z,77.80
2018-12-29T01:03:16.804Z,70.80
2018-12-29T01:04:16.768Z,71.50
2018-12-29T01:05:16.722Z,71.20
2018-12-29T01:06:16.682Z,72.50
2018-12-29T01:07:16.648Z,66.90
2018-12-29T01:08:16.619Z,68.90
2018-12-29T01:09:16.565Z,67.60
2018-12-29T01:10:16.567Z,70.30
2018-12-29T01:11:16.508Z,74.60
2018-12-29T01:12:16.456Z,74.40
2018-12-29T01:13:16.420Z,74.00
2018-12-29T01:14:16.383Z,74.50
2018-12-29T01:15:16.348Z,68.30
2018-12-29T01:16:16.337Z,62.60
2018-12-29T01:17:16.303Z,66.30
2018-12-29T01:18:16.229Z,67.40
2018-12-29T01:19:16.191Z,65.00
2018-12-29T01:20:16.159Z,73.10
2018-12-29T01:21:16.127Z,72.80
2018-12-29T01:22:16.087Z,65.50
2018-12-29T01:23:16.059Z,65.40
2018-12-29T01:24:16.008Z,66.00
2018-12-29T01:25:16.025Z,64.50
2018-12-29T01:26:15.931Z,68.00
2018-12-29T01:27:15.897Z,68.40
2018-12-29T01:28:15.855Z,64.70
2018-12-29T01:29:15.836Z,65.70
2018-12-29T01:30:15.782Z,68.50
2018-12-29T01:31:15.748Z,67.60
2018-12-29T01:32:15.705Z,66.30
2018-12-29T01:33:15.665Z,62.90
2018-12-29T01:34:15.639Z,63.90
2018-12-29T01:35:15.620Z,64.70
2018-12-29T01:36:15.554Z,64.60
2018-12-29T01:37:15.878Z,69.20
2018-12-29T01:38:15.496Z,66.00
2018-12-29T01:39:15.440Z,65.80
2018-12-29T01:40:15.397Z,67.50
2018-12-29T01:41:15.363Z,68.90
2018-12-29T01:42:15.333Z,66.50
2018-12-29T01:43:15.377Z,69.50
2018-12-29T01:44:15.252Z,61.70
2018-12-29T01:45:17.656Z,66.60
2018-12-29T01:46:15.198Z,64.60
2018-12-29T01:47:15.141Z,71.30
2018-12-29T01:48:15.110Z,68.60
2018-12-29T01:49:15.098Z,63.30
2018-12-29T01:50:15.200Z,63.50
2018-12-29T01:51:14.993Z,66.60
2018-12-29T01:52:15.006Z,69.00
2018-12-29T01:53:14.940Z,69.70
2018-12-29T01:54:14.900Z,63.60
2018-12-29T01:55:14.839Z,63.10
2018-12-29T01:56:14.827Z,63.10
2018-12-29T01:57:14.772Z,63.10
2018-12-29T01:58:14.743Z,65.50
2018-12-29T01:59:14.690Z,63.60
2018-12-29T02:00:14.662Z,67.60
2018-12-29T02:01:14.624Z,62.00
2018-12-29T02:02:14.581Z,61.30
2018-12-29T02:03:14.542Z,67.60
2018-12-29T02:04:14.499Z,70.70
2018-12-29T02:05:14.467Z,66.40
2018-12-29T02:06:14.431Z,63.80
2018-12-29T02:07:14.393Z,66.40
2018-12-29T02:08:14.348Z,64.50
2018-12-29T02:09:14.356Z,74.30
2018-12-29T02:10:14.274Z,71.20
2018-12-29T02:11:14.260Z,64.40
2018-12-29T02:12:14.207Z,67.40
2018-12-29T02:13:14.162Z,72.40
2018-12-29T02:14:14.125Z,66.40
2018-12-29T02:15:14.087Z,66.30
2018-12-29T02:16:14.051Z,67.30
2018-12-29T02:17:14.318Z,71.20
2018-12-29T02:18:13.978Z,66.50
2018-12-29T02:19:13.967Z,73.10
2018-12-29T02:20:13.902Z,77.30
2018-12-29T02:21:13.863Z,69.00
2018-12-29T02:22:13.818Z,69.20
2018-12-29T02:23:13.779Z,69.90
2018-12-29T02:24:13.749Z,63.90
2018-12-29T02:25:13.711Z,60.80
2018-12-29T02:26:13.677Z,66.90
2018-12-29T02:27:13.632Z,75.50
2018-12-29T02:28:13.598Z,71.00
2018-12-29T02:29:13.561Z,72.00
2018-12-29T02:30:13.529Z,75.20
2018-12-29T02:31:13.486Z,71.60
2018-12-29T02:32:13.456Z,63.90
2018-12-29T02:33:13.406Z,63.30
2018-12-29T02:34:13.395Z,70.20
2018-12-29T02:35:13.326Z,77.60
2018-12-29T02:36:13.303Z,68.70
2018-12-29T02:37:13.265Z,70.90
2018-12-29T02:38:13.217Z,77.80
2018-12-29T02:39:13.181Z,70.10
2018-12-29T02:40:13.150Z,68.60
2018-12-29T02:41:13.136Z,74.10
2018-12-29T02:42:13.081Z,68.80
2018-12-29T02:43:13.028Z,79.00
2018-12-29T02:44:12.986Z,71.90
2018-12-29T02:45:12.974Z,71.70
2018-12-29T02:46:12.910Z,66.70
2018-12-29T02:47:12.882Z,67.50
2018-12-29T02:48:12.838Z,70.30
2018-12-29T02:49:12.808Z,73.50
2018-12-29T02:50:14.635Z,71.10
2018-12-29T02:51:12.727Z,70.80
2018-12-29T02:52:12.697Z,70.90
2018-12-29T02:53:12.671Z,73.80
2018-12-29T02:54:12.609Z,69.80
2018-12-29T02:55:12.572Z,70.60
2018-12-29T02:56:12.541Z,72.20
2018-12-29T02:57:12.504Z,69.70
2018-12-29T02:58:12.485Z,68.50
2018-12-29T02:59:12.483Z,73.40
2018-12-29T03:00:12.394Z,76.20
2018-12-29T03:01:12.347Z,76.50
2018-12-29T03:02:12.318Z,68.40
2018-12-29T03:03:12.273Z,78.70
2018-12-29T03:04:12.286Z,80.20
2018-12-29T03:05:12.229Z,72.00
2018-12-29T03:06:12.165Z,75.10
2018-12-29T03:07:12.149Z,72.20
2018-12-29T03:08:12.130Z,77.20
2018-12-29T03:09:12.081Z,74.20
2018-12-29T03:10:12.029Z,75.30
2018-12-29T03:11:12.263Z,79.90
2018-12-29T03:12:11.935Z,74.60
2018-12-29T03:13:12.243Z,80.70
2018-12-29T03:14:11.987Z,82.10
2018-12-29T03:15:11.837Z,81.10
2018-12-29T03:16:11.791Z,90.00
2018-12-29T03:17:11.752Z,82.60
2018-12-29T03:18:11.715Z,85.90
2018-12-29T03:19:11.675Z,88.20
2018-12-29T03:20:11.640Z,89.10
2018-12-29T03:21:11.615Z,91.60
2018-12-29T03:22:11.578Z,87.60
2018-12-29T03:23:11.534Z,92.00
2018-12-29T03:24:11.499Z,92.30
2018-12-29T03:25:11.455Z,90.70
2018-12-29T03:26:11.415Z,89.80
2018-12-29T03:27:11.402Z,93.60
2018-12-29T03:28:12.047Z,87.50
2018-12-29T03:29:12.047Z,87.20
2018-12-29T03:30:11.275Z,89.00
2018-12-29T03:31:12.123Z,87.90
2018-12-29T03:32:11.199Z,97.50
2018-12-29T03:33:11.154Z,101.40
2018-12-29T03:34:11.114Z,90.90
2018-12-29T03:35:11.074Z,101.80
2018-12-29T03:36:11.036Z,102.50
2018-12-29T03:37:11.000Z,106.40
2018-12-29T03:38:10.959Z,109.60
2018-12-29T03:39:10.922Z,102.80
2018-12-29T03:40:10.887Z,101.60
2018-12-29T03:41:10.861Z,104.80
2018-12-29T03:42:10.816Z,102.00
2018-12-29T03:43:10.803Z,107.20
2018-12-29T03:44:10.724Z,111.20
2018-12-29T03:45:10.689Z,102.00
2018-12-29T03:46:10.651Z,101.50
2018-12-29T03:47:10.632Z,103.90
2018-12-29T03:48:10.580Z,112.30
2018-12-29T03:49:10.544Z,114.40
2018-12-29T03:50:10.505Z,103.00
2018-12-29T03:51:10.463Z,118.80
2018-12-29T03:52:10.429Z,108.30
2018-12-29T03:53:10.415Z,113.80
2018-12-29T03:54:10.367Z,118.40
2018-12-29T03:55:10.330Z,118.90
2018-12-29T03:56:10.276Z,119.60
2018-12-29T03:57:10.240Z,112.80
2018-12-29T03:58:10.196Z,121.90
2018-12-29T03:59:10.162Z,117.30
2018-12-29T04:00:10.135Z,117.00
2018-12-29T04:01:10.105Z,125.00
2018-12-29T04:02:10.051Z,123.80
2018-12-29T04:03:10.007Z,118.60
2018-12-29T04:04:09.975Z,122.50
2018-12-29T04:05:09.930Z,120.00
2018-12-29T04:06:09.896Z,129.20
2018-12-29T04:07:09.866Z,123.10
2018-12-29T04:08:09.819Z,119.10
2018-12-29T04:09:09.780Z,128.00
2018-12-29T04:10:09.742Z,121.80
2018-12-29T04:11:09.705Z,125.60
2018-12-29T04:12:09.707Z,123.80
2018-12-29T04:13:09.628Z,132.40
2018-12-29T04:14:09.606Z,137.90
2018-12-29T04:15:09.571Z,133.00
2018-12-29T04:16:09.511Z,126.20
2018-12-29T04:17:09.487Z,132.50
2018-12-29T04:18:09.434Z,128.40
2018-12-29T04:19:09.401Z,123.00
2018-12-29T04:20:09.361Z,127.10
2018-12-29T04:21:09.319Z,129.60
2018-12-29T04:22:09.287Z,135.20
2018-12-29T04:23:09.254Z,142.20
2018-12-29T04:24:09.213Z,138.40
2018-12-29T04:25:09.172Z,141.20
2018-12-29T04:26:09.136Z,132.20
2018-12-29T04:27:09.095Z,143.70
2018-12-29T04:28:09.062Z,133.80
2018-12-29T04:29:09.048Z,144.50
2018-12-29T04:30:09.016Z,140.40
2018-12-29T04:31:08.935Z,143.50
2018-12-29T04:32:09.222Z,142.60
2018-12-29T04:33:08.865Z,150.30
2018-12-29T04:34:08.829Z,145.50
2018-12-29T04:35:08.790Z,148.00
2018-12-29T04:36:08.754Z,151.30
2018-12-29T04:37:08.712Z,148.80
2018-12-29T04:38:08.675Z,146.30
2018-12-29T04:39:08.639Z,158.10
2018-12-29T04:40:08.599Z,157.10
2018-12-29T04:41:08.630Z,166.10
2018-12-29T04:42:08.528Z,160.00
2018-12-29T04:43:08.486Z,172.70
2018-12-29T04:44:08.442Z,164.90
2018-12-29T04:45:08.407Z,170.70
2018-12-29T04:46:08.371Z,160.40
2018-12-29T04:47:08.875Z,178.60
2018-12-29T04:48:08.303Z,183.10
2018-12-29T04:49:08.258Z,171.50
2018-12-29T04:50:08.214Z,169.10
2018-12-29T04:51:08.175Z,158.90
2018-12-29T04:53:21.497Z,166.20
2018-12-29T04:54:21.430Z,175.20
2018-12-29T04:55:21.393Z,177.20
2018-12-29T04:56:21.354Z,167.60
2018-12-29T04:57:21.329Z,168.00
2018-12-29T04:58:21.278Z,173.20
2018-12-29T04:59:21.242Z,173.80
2018-12-29T05:00:21.214Z,175.80
2018-12-29T05:01:21.160Z,176.80
2018-12-29T05:02:21.125Z,185.50
2018-12-29T05:03:21.081Z,180.20
2018-12-29T05:04:21.048Z,173.60
2018-12-29T05:05:21.032Z,195.80
2018-12-29T05:06:20.991Z,203.90
2018-12-29T05:07:20.933Z,212.10
2018-12-29T05:08:20.932Z,198.10
2018-12-29T05:09:20.929Z,178.30
2018-12-29T05:10:20.842Z,174.20
2018-12-29T05:11:20.780Z,175.30
2018-12-29T05:12:20.809Z,193.30
2018-12-29T05:13:20.720Z,174.70
2018-12-29T05:14:20.668Z,178.30
2018-12-29T05:15:20.629Z,183.00
2018-12-29T05:16:20.599Z,190.00
2018-12-29T05:17:20.578Z,190.70
2018-12-29T05:18:20.985Z,189.40
2018-12-29T05:19:20.985Z,182.90
2018-12-29T05:20:20.435Z,190.50
2018-12-29T05:21:20.413Z,189.00
2018-12-29T05:22:20.358Z,183.90
2018-12-29T05:23:20.362Z,178.10
2018-12-29T05:24:20.288Z,181.40
2018-12-29T05:25:20.245Z,175.80
2018-12-29T05:26:20.235Z,184.10
2018-12-29T05:27:20.167Z,178.20
2018-12-29T05:28:20.135Z,169.70
2018-12-29T05:29:20.092Z,167.00
2018-12-29T05:30:20.119Z,171.30
2018-12-29T05:31:20.027Z,171.20
2018-12-29T05:32:19.979Z,153.50
2018-12-29T05:33:19.944Z,157.30
2018-12-29T05:34:19.907Z,150.30
2018-12-29T05:35:19.862Z,157.80
2018-12-29T05:36:19.827Z,151.50
2018-12-29T05:37:19.786Z,141.00
2018-12-29T05:38:19.763Z,145.20
2018-12-29T05:39:19.710Z,137.10
2018-12-29T05:40:19.671Z,142.80
2018-12-29T05:41:19.635Z,143.40
2018-12-29T05:42:19.605Z,132.80
2018-12-29T05:43:19.582Z,130.60
2018-12-29T05:44:19.523Z,134.50
2018-12-29T05:45:19.489Z,136.60
2018-12-29T05:46:20.587Z,131.70
2018-12-29T05:47:19.445Z,142.80
2018-12-29T05:48:19.367Z,137.20
2018-12-29T05:49:19.324Z,145.10
2018-12-29T05:50:19.289Z,141.20
2018-12-29T05:51:19.251Z,140.30
2018-12-29T05:52:19.271Z,146.80
2018-12-29T05:53:19.176Z,141.20
2018-12-29T05:54:19.139Z,144.30
2018-12-29T05:55:19.134Z,144.70
2018-12-29T05:56:19.223Z,152.40
2018-12-29T05:57:19.029Z,138.00
2018-12-29T05:58:18.985Z,143.50
2018-12-29T05:59:18.947Z,144.10
2018-12-29T06:00:18.909Z,157.30
2018-12-29T06:01:18.866Z,148.20
2018-12-29T06:02:18.829Z,155.90
2018-12-29T06:03:18.835Z,148.30
2018-12-29T06:04:18.756Z,140.40
2018-12-29T06:05:18.716Z,149.80
2018-12-29T06:06:18.681Z,142.10
2018-12-29T06:07:18.682Z,145.80
2018-12-29T06:08:18.594Z,143.00
2018-12-29T06:09:18.559Z,143.90
2018-12-29T06:10:18.534Z,139.50
2018-12-29T06:11:18.504Z,130.60
2018-12-29T06:12:18.450Z,126.30
2018-12-29T06:13:18.451Z,129.10
2018-12-29T06:14:18.366Z,136.80
2018-12-29T06:15:18.350Z,131.10
2018-12-29T06:16:18.302Z,137.60
2018-12-29T06:17:18.257Z,130.90
2018-12-29T06:18:18.221Z,136.90
2018-12-29T06:19:18.203Z,126.80
2018-12-29T06:20:18.146Z,123.30
2018-12-29T06:21:18.119Z,120.90
2018-12-29T06:22:18.070Z,120.90
2018-12-29T06:23:18.039Z,132.70
2018-12-29T06:24:18.010Z,121.20
2018-12-29T06:25:17.975Z,126.50
2018-12-29T06:26:17.919Z,125.00
2018-12-29T06:27:17.879Z,124.60
2018-12-29T06:28:17.840Z,135.60
2018-12-29T06:29:17.801Z,115.10
2018-12-29T06:30:17.776Z,112.90
2018-12-29T06:31:17.723Z,105.70
2018-12-29T06:32:17.687Z,104.60
2018-12-29T06:33:17.651Z,103.70
2018-12-29T06:34:17.612Z,106.00
2018-12-29T06:35:17.879Z,121.20
2018-12-29T06:36:17.541Z,120.60
2018-12-29T06:37:17.499Z,110.90
2018-12-29T06:38:17.461Z,113.30
2018-12-29T06:39:17.424Z,108.70
2018-12-29T06:40:17.384Z,112.60
2018-12-29T06:41:17.347Z,110.60
2018-12-29T06:42:17.316Z,112.60
2018-12-29T06:43:18.057Z,114.30
2018-12-29T06:44:17.236Z,104.10
2018-12-29T06:45:17.198Z,101.80
2018-12-29T06:46:17.158Z,110.30
2018-12-29T06:47:17.196Z,103.40
2018-12-29T06:48:17.192Z,106.30
2018-12-29T06:49:17.046Z,104.00
2018-12-29T06:50:16.999Z,104.60
2018-12-29T06:51:16.962Z,107.20
2018-12-29T06:52:16.930Z,112.20
2018-12-29T06:53:16.891Z,105.60
2018-12-29T06:54:16.859Z,106.30
2018-12-29T06:55:16.812Z,110.20
2018-12-29T06:56:16.777Z,111.00
2018-12-29T06:57:16.739Z,101.90
2018-12-29T06:58:16.703Z,105.10
2018-12-29T06:59:16.663Z,100.30
2018-12-29T07:00:16.624Z,105.10
2018-12-29T07:01:16.587Z,107.40
2018-12-29T07:02:16.549Z,98.10
2018-12-29T07:03:16.514Z,104.30
2018-12-29T07:04:16.472Z,97.90
2018-12-29T07:05:16.437Z,102.30
2018-12-29T07:06:16.397Z,98.60
2018-12-29T07:07:16.645Z,99.10
2018-12-29T07:08:16.321Z,104.60
2018-12-29T07:09:16.283Z,108.20
2018-12-29T07:10:16.243Z,103.60
2018-12-29T07:11:16.209Z,107.00
2018-12-29T07:12:16.171Z,110.10
2018-12-29T07:13:16.134Z,98.70
2018-12-29T07:14:16.093Z,111.50
2018-12-29T07:15:16.053Z,102.80
2018-12-29T07:16:16.016Z,94.10
2018-12-29T07:17:15.982Z,107.60
2018-12-29T07:18:15.942Z,102.90
2018-12-29T07:19:15.904Z,117.20
2018-12-29T07:20:15.892Z,108.10
2018-12-29T07:21:15.830Z,110.50
2018-12-29T07:22:15.786Z,107.20
2018-12-29T07:23:15.868Z,110.90
2018-12-29T07:24:15.713Z,116.80
2018-12-29T07:25:15.673Z,123.20
2018-12-29T07:26:15.634Z,118.60
2018-12-29T07:27:15.601Z,119.50
2018-12-29T07:28:15.561Z,121.70
2018-12-29T07:29:15.525Z,122.60
2018-12-29T07:30:15.486Z,119.10
2018-12-29T07:31:15.445Z,131.80
2018-12-29T07:32:15.409Z,128.90
2018-12-29T07:33:15.369Z,140.70
2018-12-29T07:34:15.332Z,131.70
2018-12-29T07:35:16.820Z,137.80
2018-12-29T07:36:15.258Z,136.30
2018-12-29T07:37:15.221Z,138.80
2018-12-29T07:38:15.181Z,134.60
2018-12-29T07:39:15.141Z,132.60
2018-12-29T07:40:15.106Z,127.60
2018-12-29T07:41:15.069Z,129.60
2018-12-29T07:42:15.053Z,121.90
2018-12-29T07:43:14.992Z,130.00
2018-12-29T07:44:14.955Z,125.50
2018-12-29T07:45:14.916Z,132.40
2018-12-29T07:46:15.259Z,116.20
2018-12-29T07:47:14.842Z,121.40
2018-12-29T07:48:14.801Z,114.70
2018-12-29T07:49:14.766Z,110.10
2018-12-29T07:50:14.729Z,107.50
2018-12-29T07:51:14.690Z,116.10
2018-12-29T07:52:14.652Z,108.50
2018-12-29T07:53:14.616Z,113.40
2018-12-29T07:54:14.581Z,109.80
2018-12-29T07:55:14.542Z,100.80
2018-12-29T07:56:14.499Z,103.40
2018-12-29T07:57:14.468Z,103.40
2018-12-29T07:58:14.435Z,108.20
2018-12-29T07:59:14.391Z,106.10
2018-12-29T08:00:14.864Z,110.20
2018-12-29T08:01:14.315Z,108.10
2018-12-29T08:02:14.275Z,102.10
2018-12-29T08:03:14.239Z,98.50
2018-12-29T08:04:14.204Z,94.20
2018-12-29T08:05:14.165Z,95.20
2018-12-29T08:06:14.124Z,100.30
2018-12-29T08:07:14.087Z,105.20
2018-12-29T08:08:14.051Z,99.60
2018-12-29T08:09:14.015Z,99.60
2018-12-29T08:10:13.974Z,92.70
2018-12-29T08:11:13.935Z,95.70
2018-12-29T08:12:13.961Z,103.70
2018-12-29T08:13:13.862Z,103.10
2018-12-29T08:14:13.824Z,91.70
2018-12-29T08:15:13.802Z,108.10
2018-12-29T08:16:13.750Z,93.40
2018-12-29T08:17:13.711Z,102.50
2018-12-29T08:18:13.673Z,89.00
2018-12-29T08:19:13.636Z,95.50
2018-12-29T08:20:13.597Z,97.40
2018-12-29T08:21:13.560Z,99.70
2018-12-29T08:22:13.523Z,95.80
2018-12-29T08:23:13.489Z,92.80
2018-12-29T08:24:13.447Z,97.90
2018-12-29T08:25:13.410Z,96.20
2018-12-29T08:26:13.372Z,92.70
2018-12-29T08:27:13.334Z,96.70
2018-12-29T08:28:13.312Z,89.70
2018-12-29T08:29:13.260Z,94.20
2018-12-29T08:30:13.223Z,88.80
2018-12-29T08:31:13.182Z,90.30
2018-12-29T08:32:13.144Z,83.10
2018-12-29T08:33:13.106Z,81.10
2018-12-29T08:34:13.071Z,82.90
2018-12-29T08:35:13.033Z,83.10
2018-12-29T08:36:12.996Z,88.10
2018-12-29T08:37:12.956Z,87.50
2018-12-29T08:38:12.921Z,87.90
2018-12-29T08:39:12.881Z,83.60
2018-12-29T08:40:12.848Z,82.00
2018-12-29T08:41:12.806Z,79.10
2018-12-29T08:42:12.770Z,82.40
2018-12-29T08:43:12.733Z,85.90
2018-12-29T08:44:12.694Z,90.10
2018-12-29T08:45:12.656Z,83.60
2018-12-29T08:46:13.485Z,81.30
2018-12-29T08:47:12.579Z,86.00
2018-12-29T08:48:13.489Z,76.60
2018-12-29T08:49:12.505Z,69.80
2018-12-29T08:50:13.212Z,74.60
2018-12-29T08:51:12.428Z,77.40
2018-12-29T08:52:12.394Z,73.30
2018-12-29T08:53:12.356Z,69.90
2018-12-29T08:54:12.315Z,80.70
2018-12-29T08:55:12.279Z,78.10
2018-12-29T08:56:12.242Z,78.90
2018-12-29T08:57:12.206Z,80.50
2018-12-29T08:58:12.166Z,77.30
2018-12-29T08:59:12.129Z,81.80
2018-12-29T09:00:12.090Z,85.00
2018-12-29T09:01:12.051Z,77.10
2018-12-29T09:02:12.021Z,84.40
2018-12-29T09:03:11.981Z,80.60
2018-12-29T09:04:11.942Z,88.70
2018-12-29T09:05:11.906Z,74.70
2018-12-29T09:06:11.869Z,79.50
2018-12-29T09:07:11.829Z,78.30
2018-12-29T09:08:11.786Z,73.80
2018-12-29T09:09:11.756Z,76.10
2018-12-29T09:10:11.778Z,77.90
2018-12-29T09:11:11.680Z,78.50
2018-12-29T09:12:11.644Z,81.90
2018-12-29T09:13:11.764Z,80.40
2018-12-29T09:14:11.567Z,78.70
2018-12-29T09:15:11.545Z,76.60
2018-12-29T09:16:11.496Z,75.10
2018-12-29T09:17:12.237Z,94.00
2018-12-29T09:18:11.417Z,85.90
2018-12-29T09:19:12.076Z,75.40
2018-12-29T09:20:11.344Z,76.30
2018-12-29T09:21:11.310Z,76.70
2018-12-29T09:22:11.273Z,74.70
2018-12-29T09:23:11.234Z,69.50
2018-12-29T09:24:11.192Z,76.60
2018-12-29T09:25:11.151Z,71.30
2018-12-29T09:26:11.119Z,73.90
2018-12-29T09:27:11.086Z,66.00
2018-12-29T09:28:11.048Z,71.80
2018-12-29T09:29:11.008Z,66.20
2018-12-29T09:30:10.987Z,67.40
2018-12-29T09:31:10.934Z,69.70
2018-12-29T09:32:10.900Z,70.00
2018-12-29T09:33:10.858Z,64.90
2018-12-29T09:34:10.819Z,67.70
2018-12-29T09:35:10.783Z,63.70
2018-12-29T09:36:10.760Z,66.30
2018-12-29T09:37:10.710Z,71.50
2018-12-29T09:38:10.668Z,69.90
2018-12-29T09:39:10.634Z,66.90
2018-12-29T09:40:10.597Z,66.60
2018-12-29T09:41:10.559Z,66.20
2018-12-29T09:42:10.527Z,63.80
2018-12-29T09:43:10.489Z,65.20
2018-12-29T09:44:10.451Z,63.30
2018-12-29T09:45:10.409Z,67.20
2018-12-29T09:46:10.365Z,62.10
2018-12-29T09:47:10.336Z,63.20
2018-12-29T09:48:10.310Z,66.10
2018-12-29T09:49:10.264Z,61.30
2018-12-29T09:50:10.222Z,58.30
2018-12-29T09:51:10.187Z,62.60
2018-12-29T09:52:10.157Z,60.40
2018-12-29T09:53:10.112Z,65.30
2018-12-29T09:54:10.075Z,66.10
2018-12-29T09:55:10.035Z,66.50
2018-12-29T09:56:10.001Z,63.20
2018-12-29T09:57:10.320Z,66.50
2018-12-29T09:58:09.926Z,70.70
2018-12-29T09:59:09.888Z,66.80
2018-12-29T10:00:09.853Z,60.90
2018-12-29T10:01:09.812Z,58.50
2018-12-29T10:02:09.777Z,58.40
2018-12-29T10:03:10.288Z,59.90
2018-12-29T10:04:09.701Z,62.00
2018-12-29T10:05:09.664Z,63.60
2018-12-29T10:06:09.623Z,58.50
2018-12-29T10:07:09.593Z,62.30
2018-12-29T10:08:09.598Z,71.00
2018-12-29T10:09:09.518Z,59.40
2018-12-29T10:10:09.480Z,60.80
2018-12-29T10:11:09.443Z,59.90
2018-12-29T10:12:09.406Z,59.80
2018-12-29T10:13:09.365Z,68.80
2018-12-29T10:14:09.327Z,59.70
2018-12-29T10:15:09.293Z,59.60
2018-12-29T10:16:09.257Z,60.30
2018-12-29T10:17:09.218Z,62.00
2018-12-29T10:18:09.183Z,65.10
2018-12-29T10:19:09.151Z,66.20
2018-12-29T10:20:09.106Z,58.00
2018-12-29T10:21:09.108Z,60.10
2018-12-29T10:22:09.034Z,71.00
2018-12-29T10:23:08.998Z,65.30
2018-12-29T10:24:08.961Z,62.70
2018-12-29T10:25:08.922Z,69.60
2018-12-29T10:26:08.884Z,62.20
2018-12-29T10:27:08.892Z,64.20
2018-12-29T10:28:08.822Z,63.60
2018-12-29T10:29:08.786Z,65.60
2018-12-29T10:30:08.742Z,60.60
2018-12-29T10:31:08.694Z,59.00
2018-12-29T10:32:08.668Z,62.60
2018-12-29T10:33:08.630Z,62.10
2018-12-29T10:34:08.618Z,58.00
2018-12-29T10:35:08.560Z,59.20
2018-12-29T10:36:08.520Z,58.80
2018-12-29T10:37:08.485Z,59.10
2018-12-29T10:38:08.446Z,63.70
2018-12-29T10:39:08.412Z,61.70
2018-12-29T10:40:08.593Z,60.50
2018-12-29T10:41:08.335Z,57.90
2018-12-29T10:42:08.299Z,63.20
2018-12-29T10:43:08.263Z,60.70
2018-12-29T10:44:08.227Z,58.90
2018-12-29T10:45:08.191Z,54.70
2018-12-29T10:46:08.153Z,49.70
2018-12-29T10:47:08.118Z,55.80
2018-12-29T10:48:08.083Z,58.60
2018-12-29T10:49:08.046Z,54.40
2018-12-29T10:50:08.006Z,57.30
2018-12-29T10:51:07.970Z,54.90
2018-12-29T10:52:07.932Z,51.40
2018-12-29T10:53:07.897Z,54.30
2018-12-29T10:54:07.854Z,58.70
2018-12-29T10:55:07.826Z,54.60
2018-12-29T10:56:07.790Z,54.10
2018-12-29T10:57:07.752Z,56.20
2018-12-29T10:58:07.716Z,55.10
2018-12-29T10:59:07.679Z,54.30
2018-12-29T11:00:07.639Z,54.60
2018-12-29T11:01:07.619Z,58.70
2018-12-29T11:02:07.570Z,53.80
2018-12-29T11:03:07.531Z,54.70
2018-12-29T11:04:07.512Z,51.70
2018-12-29T11:05:07.459Z,50.10
2018-12-29T11:06:07.428Z,53.30
2018-12-29T11:07:07.386Z,54.70
2018-12-29T11:08:07.347Z,59.10
2018-12-29T11:09:07.315Z,56.10
2018-12-29T11:10:07.277Z,60.20
2018-12-29T11:11:07.240Z,51.10
2018-12-29T11:12:07.203Z,54.90
2018-12-29T11:13:07.166Z,64.40
2018-12-29T11:14:07.129Z,64.10
2018-12-29T11:15:07.096Z,57.20
2018-12-29T11:16:07.059Z,62.30
2018-12-29T11:17:07.024Z,62.90
2018-12-29T11:18:06.988Z,55.30
2018-12-29T11:19:06.954Z,57.00
2018-12-29T11:20:06.912Z,55.80
2018-12-29T11:21:06.878Z,62.00
2018-12-29T11:22:06.843Z,51.50
2018-12-29T11:23:06.807Z,53.30
2018-12-29T11:24:06.773Z,54.20
2018-12-29T11:25:06.734Z,56.80
2018-12-29T11:26:06.698Z,50.50
2018-12-29T11:27:06.661Z,53.60
2018-12-29T11:28:06.623Z,50.50
2018-12-29T11:29:06.589Z,50.90
2018-12-29T11:30:06.549Z,58.20
2018-12-29T11:31:06.517Z,52.50
2018-12-29T11:32:06.481Z,54.90
2018-12-29T11:33:06.446Z,53.70
2018-12-29T11:34:06.412Z,51.20
2018-12-29T11:35:06.374Z,50.70
2018-12-29T11:36:06.340Z,53.30
2018-12-29T11:37:06.303Z,52.60
2018-12-29T11:38:06.266Z,52.70
2018-12-29T11:39:06.230Z,64.80
2018-12-29T11:40:06.195Z,56.70
2018-12-29T11:41:06.198Z,62.50
2018-12-29T11:42:06.124Z,59.90
2018-12-29T11:43:06.088Z,61.10
2018-12-29T11:44:06.055Z,62.10
2018-12-29T11:45:06.016Z,80.00
2018-12-29T11:46:05.977Z,69.30
2018-12-29T11:47:05.947Z,58.60
2018-12-29T11:48:05.913Z,63.40
2018-12-29T11:49:05.892Z,73.20
2018-12-29T11:50:05.833Z,59.60
2018-12-29T11:51:05.805Z,60.30
2018-12-29T11:52:05.771Z,57.10
2018-12-29T11:53:05.734Z,59.10
2018-12-29T11:54:05.760Z,58.80
2018-12-29T11:55:05.661Z,61.70
2018-12-29T11:56:05.624Z,60.60
2018-12-29T11:57:05.614Z,57.30
2018-12-29T11:58:05.553Z,53.50
2018-12-29T11:59:05.519Z,56.10
2018-12-29T12:00:05.487Z,53.50
2018-12-29T12:01:05.475Z,60.80
2018-12-29T12:02:05.439Z,61.30
2018-12-29T12:03:05.373Z,58.20
2018-12-29T12:04:05.341Z,62.80
2018-12-29T12:05:05.306Z,57.80
2018-12-29T12:06:05.266Z,60.50
2018-12-29T12:07:05.237Z,62.20
2018-12-29T12:08:05.195Z,57.90
2018-12-29T12:09:05.162Z,61.00
2018-12-29T12:10:05.124Z,55.20
2018-12-29T12:11:05.087Z,61.90
2018-12-29T12:12:05.053Z,59.80
2018-12-29T12:13:05.015Z,53.00
2018-12-29T12:14:05.114Z,59.70
2018-12-29T12:15:04.936Z,57.40
2018-12-29T12:16:04.907Z,55.10
2018-12-29T12:17:04.872Z,59.00
2018-12-29T12:18:04.836Z,62.70
2018-12-29T12:19:04.801Z,57.10
2018-12-29T12:20:04.786Z,53.60
2018-12-29T12:21:04.728Z,62.90
2018-12-29T12:22:05.489Z,54.30
2018-12-29T12:23:04.654Z,53.50
2018-12-29T12:24:04.673Z,56.00
2018-12-29T12:25:04.602Z,47.30
2018-12-29T12:26:04.546Z,50.60
2018-12-29T12:27:04.535Z,55.80
2018-12-29T12:28:04.473Z,55.10
2018-12-29T12:29:04.439Z,45.20
2018-12-29T12:30:04.401Z,39.90
2018-12-29T12:31:04.365Z,43.40
2018-12-29T12:32:04.331Z,38.80
2018-12-29T12:33:04.296Z,36.40
2018-12-29T12:34:04.258Z,40.20
2018-12-29T12:35:04.223Z,34.00
2018-12-29T12:36:04.191Z,39.20
2018-12-29T12:37:04.150Z,35.90
2018-12-29T12:38:04.114Z,35.80
2018-12-29T12:39:04.077Z,34.10
2018-12-29T12:40:04.047Z,37.30
2018-12-29T12:41:04.001Z,35.40
2018-12-29T12:42:04.047Z,34.80
2018-12-29T12:43:03.936Z,38.60
2018-12-29T12:44:03.899Z,33.50
2018-12-29T12:45:03.864Z,32.50